Time;durP1;ratioP1;P1;durP2;ratioP2;P2;SDS_P1;SDS_P2;PMS_P1;PMS_P2;Temp;Humidity;BMP_temperature;BMP_pressure;BME280_temperature;BME280_humidity;BME280_pressure;Samples;Min_cycle;Max_cycle;Signal;HPM_P1;HPM_P2
2022/03/13 00:02:16;;;;;;;2.20;1.00;;;;;;;16.49;26.02;93415.16;4933487;29;20063;-90
2022/03/13 00:04:44;;;;;;;1.90;1.10;;;;;;;16.51;26.30;93417.38;4934548;29;20036;-89
2022/03/13 00:07:16;;;;;;;1.63;1.20;;;;;;;16.48;26.17;93413.66;4933920;29;20046;-90
2022/03/13 00:09:43;;;;;;;1.30;1.10;;;;;;;16.50;26.37;93403.00;4934673;29;20047;-89
2022/03/13 00:12:10;;;;;;;0.90;0.80;;;;;;;16.51;26.19;93407.22;4934057;29;20572;-89
2022/03/13 00:14:42;;;;;;;1.30;1.00;;;;;;;16.51;26.30;93401.00;4918613;29;20520;-89
2022/03/13 00:17:07;;;;;;;1.98;1.27;;;;;;;16.52;26.17;93397.78;4934381;29;20031;-90
2022/03/13 00:19:33;;;;;;;1.70;1.10;;;;;;;16.51;26.14;93398.28;4903534;29;20095;-90
2022/03/13 00:21:59;;;;;;;1.65;1.30;;;;;;;16.52;26.47;93397.03;4929796;29;20393;-90
2022/03/13 00:24:25;;;;;;;1.70;1.00;;;;;;;16.50;26.24;93394.06;4904880;29;20039;-89
2022/03/13 00:26:52;;;;;;;1.63;1.08;;;;;;;16.54;26.45;93394.56;4904721;29;20039;-90
2022/03/13 00:29:18;;;;;;;2.28;0.90;;;;;;;16.51;26.04;93395.56;4920599;29;20616;-89
2022/03/13 00:31:44;;;;;;;1.48;1.10;;;;;;;16.49;26.36;93393.31;4922940;29;20405;-90
2022/03/13 00:34:09;;;;;;;1.63;1.00;;;;;;;16.52;26.42;93388.84;4919889;29;20035;-89
2022/03/13 00:36:35;;;;;;;2.05;1.40;;;;;;;16.51;26.50;93392.81;4904850;29;20109;-89
2022/03/13 00:39:00;;;;;;;1.67;1.25;;;;;;;16.52;26.46;93391.59;4920961;29;20031;-89
2022/03/13 00:41:26;;;;;;;1.77;1.20;;;;;;;16.52;26.13;93389.59;4901062;29;20040;-89
2022/03/13 00:43:51;;;;;;;1.48;0.90;;;;;;;16.48;26.00;93391.09;4886249;29;20078;-90
2022/03/13 00:46:16;;;;;;;2.08;1.08;;;;;;;16.50;26.16;93392.06;4930629;29;20502;-90
2022/03/13 00:48:43;;;;;;;1.25;1.00;;;;;;;16.48;26.30;93383.66;4919756;29;20296;-90
2022/03/13 00:51:08;;;;;;;1.70;1.20;;;;;;;16.50;26.13;93394.06;4923526;29;20039;-90
2022/03/13 00:53:34;;;;;;;3.13;1.05;;;;;;;16.51;26.20;93385.38;4952585;29;20042;-89
2022/03/13 00:55:59;;;;;;;1.30;1.00;;;;;;;16.50;26.24;93383.16;4923407;29;20406;-90
2022/03/13 00:58:25;;;;;;;1.50;0.90;;;;;;;16.48;26.36;93389.09;4922309;29;20039;-90
2022/03/13 01:00:50;;;;;;;2.20;1.02;;;;;;;16.48;26.43;93389.09;4921798;29;20525;-90
2022/03/13 01:03:47;;;;;;;1.38;1.05;;;;;;;16.51;26.36;93384.63;4919499;29;20047;-90
2022/03/13 01:06:13;;;;;;;2.10;1.20;;;;;;;16.50;26.37;93383.16;4931662;28;20027;-89
2022/03/13 01:08:39;;;;;;;1.58;0.95;;;;;;;16.49;26.37;93371.50;4921604;29;20035;-90
2022/03/13 01:11:05;;;;;;;1.35;1.10;;;;;;;16.49;26.70;93378.94;4935287;28;20489;-90
2022/03/13 01:13:30;;;;;;;1.90;1.40;;;;;;;16.48;26.39;93377.44;4935062;29;20329;-90
2022/03/13 01:16:13;;;;;;;1.20;0.98;;;;;;;16.49;26.39;93379.69;4921442;29;20039;-90
2022/03/13 01:18:46;;;;;;;1.67;1.08;;;;;;;16.52;26.39;93378.69;4937326;29;20046;-90
2022/03/13 01:21:11;;;;;;;1.60;1.10;;;;;;;16.51;26.38;93387.38;4934455;29;20552;-90
2022/03/13 01:23:39;;;;;;;1.80;1.00;;;;;;;16.50;26.64;93388.59;4919453;29;20067;-90
2022/03/13 01:26:36;;;;;;;1.10;0.90;;;;;;;16.50;26.36;93386.63;4903938;29;20058;-90
2022/03/13 01:29:04;;;;;;;1.02;0.88;;;;;;;16.49;26.32;93376.94;4905066;29;20509;-89
2022/03/13 01:31:35;;;;;;;1.20;0.88;;;;;;;16.45;26.40;93376.47;4920755;29;20039;-90
2022/03/13 01:34:00;;;;;;;;;;;;;;;16.50;26.51;93372.22;4906930;29;20438;-90
2022/03/13 01:36:26;;;;;;;2.00;1.15;;;;;;;16.50;26.50;93370.25;4965103;28;19929;-90
2022/03/13 01:38:53;;;;;;;2.38;1.20;;;;;;;16.49;26.36;93363.31;4941286;28;20073;-90
2022/03/13 01:41:19;;;;;;;1.25;1.00;;;;;;;16.45;26.41;93366.28;4924070;28;20791;-89
2022/03/13 01:43:44;;;;;;;1.52;0.98;;;;;;;16.42;26.29;93370.03;4942194;28;20042;-89
2022/03/13 01:46:10;;;;;;;2.17;0.85;;;;;;;16.46;26.46;93350.66;4957246;28;20062;-89
2022/03/13 01:48:50;;;;;;;1.45;0.95;;;;;;;16.46;26.48;93351.41;4941242;28;20038;-89
2022/03/13 01:51:15;;;;;;;0.85;0.80;;;;;;;16.49;26.53;93354.38;4925406;28;20058;-89
2022/03/13 01:53:41;;;;;;;1.92;1.20;;;;;;;16.43;26.33;93348.94;4938290;28;20031;-90
2022/03/13 01:56:06;;;;;;;1.50;1.00;;;;;;;16.44;26.33;93350.44;4938275;28;20039;-90
2022/03/13 01:58:32;;;;;;;1.75;1.05;;;;;;;16.45;26.22;93352.66;4899212;29;20055;-89
2022/03/13 02:00:57;;;;;;;1.30;0.93;;;;;;;16.44;26.59;93343.00;4885284;29;20066;-90
2022/03/13 02:03:24;;;;;;;1.80;1.10;;;;;;;16.44;26.51;93347.72;4898890;29;20548;-90
2022/03/13 02:05:49;;;;;;;1.17;0.90;;;;;;;16.45;26.67;93347.19;4900477;29;20039;-90
2022/03/13 02:08:18;;;;;;;1.70;1.10;;;;;;;16.44;26.62;93342.25;4914570;29;20589;-90
2022/03/13 02:10:44;;;;;;;1.10;1.00;;;;;;;16.44;26.58;93337.53;4885074;29;20122;-89
2022/03/13 02:13:11;;;;;;;1.25;1.00;;;;;;;16.45;26.74;93347.19;4900159;29;20099;-89
2022/03/13 02:15:37;;;;;;;1.08;0.80;;;;;;;16.45;26.64;93343.75;4885910;29;20497;-90
2022/03/13 02:18:02;;;;;;;1.35;0.90;;;;;;;16.49;26.38;93338.00;4904487;29;20102;-89
2022/03/13 02:20:30;;;;;;;0.98;0.80;;;;;;;16.44;26.69;93347.72;4919956;29;20048;-90
2022/03/13 02:23:01;;;;;;;1.02;0.80;;;;;;;16.44;26.40;93334.81;4903910;29;20574;-90
2022/03/13 02:25:34;;;;;;;1.27;0.80;;;;;;;16.44;26.59;93332.09;4916986;29;20036;-89
2022/03/13 02:28:00;;;;;;;1.10;0.90;;;;;;;16.41;26.60;93338.53;4920133;29;20280;-90
2022/03/13 02:30:25;;;;;;;1.83;1.00;;;;;;;16.44;26.74;93334.06;4921474;29;20497;-90
2022/03/13 02:32:52;;;;;;;2.45;1.35;;;;;;;16.43;26.78;93327.88;4942000;29;20094;-90
2022/03/13 02:35:17;;;;;;;1.98;0.82;;;;;;;16.44;26.64;93328.63;4924044;29;20402;-90
2022/03/13 02:37:42;;;;;;;2.10;1.30;;;;;;;16.44;26.64;93323.16;4942043;29;20034;-90
2022/03/13 02:40:16;;;;;;;1.13;0.98;;;;;;;16.45;26.61;93321.91;4951917;28;20031;-89
2022/03/13 02:42:41;;;;;;;1.33;0.75;;;;;;;16.45;26.67;93319.91;4957154;28;20031;-90
2022/03/13 02:45:07;;;;;;;1.48;1.00;;;;;;;16.45;26.53;93322.63;4928355;28;20093;-90
2022/03/13 02:47:33;;;;;;;1.20;1.08;;;;;;;16.45;26.71;93324.66;4940834;28;20138;-90
2022/03/13 02:49:58;;;;;;;1.42;1.02;;;;;;;16.41;26.86;93321.41;4925761;28;20038;-90
2022/03/13 02:52:23;;;;;;;1.40;1.05;;;;;;;16.46;26.80;93334.28;4941361;28;20030;-90
2022/03/13 02:54:49;;;;;;;1.27;0.95;;;;;;;16.41;26.46;93319.44;4942824;28;20046;-90
2022/03/13 02:57:14;;;;;;;1.30;0.90;;;;;;;16.46;26.78;93329.56;4975351;28;20042;-90
2022/03/13 02:59:40;;;;;;;2.17;1.02;;;;;;;16.43;27.04;93327.13;4925908;28;20045;-89
2022/03/13 03:02:05;;;;;;;2.83;1.08;;;;;;;16.44;26.85;93326.63;4957593;28;20042;-90
2022/03/13 03:04:31;;;;;;;1.33;1.02;;;;;;;16.43;26.55;93332.59;4942170;28;20049;-90
2022/03/13 03:06:59;;;;;;;1.00;0.90;;;;;;;16.44;26.64;93328.63;4942206;28;20046;-90
2022/03/13 03:09:24;;;;;;;1.00;0.90;;;;;;;16.42;26.82;93331.84;4941205;28;20186;-90
2022/03/13 03:11:50;;;;;;;1.23;1.08;;;;;;;16.42;26.73;93336.56;4941538;28;20485;-90
2022/03/13 03:14:15;;;;;;;0.70;0.70;;;;;;;16.43;26.85;93336.06;4956554;28;20038;-90
2022/03/13 03:16:42;;;;;;;1.83;0.88;;;;;;;16.41;26.73;93335.06;4940197;28;20031;-90
2022/03/13 03:19:07;;;;;;;0.93;0.80;;;;;;;16.41;26.60;93338.53;4925487;28;20034;-90
2022/03/13 03:21:33;;;;;;;1.33;1.00;;;;;;;16.42;26.78;93336.56;4956392;28;20465;-89
2022/03/13 03:23:59;;;;;;;1.50;1.10;;;;;;;16.42;26.78;93339.28;4941183;28;20524;-89
2022/03/13 03:26:24;;;;;;;1.65;0.95;;;;;;;16.40;26.58;93331.59;4923894;28;20039;-89
2022/03/13 03:28:50;;;;;;;1.15;1.00;;;;;;;16.37;26.70;93331.84;4942231;28;20037;-91
2022/03/13 03:31:15;;;;;;;0.88;0.82;;;;;;;16.42;26.54;93331.09;4924703;28;20039;-90
2022/03/13 03:33:42;;;;;;;1.45;1.00;;;;;;;16.39;26.95;93332.84;4925242;28;20399;-90
2022/03/13 03:36:12;;;;;;;1.23;1.00;;;;;;;16.43;26.45;93333.31;4913782;29;20047;-90
2022/03/13 03:38:37;;;;;;;1.52;1.10;;;;;;;16.42;26.66;93329.09;4906215;29;20040;-90
2022/03/13 03:41:02;;;;;;;1.30;1.00;;;;;;;16.38;26.63;93328.63;4937298;29;20379;-89
2022/03/13 03:43:28;;;;;;;1.75;1.30;;;;;;;16.36;26.67;93327.63;4906032;29;20103;-89
2022/03/13 03:45:55;;;;;;;2.08;1.20;;;;;;;16.39;27.01;93321.91;4922253;29;20035;-90
2022/03/13 03:48:21;;;;;;;1.13;0.98;;;;;;;16.35;27.17;93326.88;4906120;29;20050;-90
2022/03/13 03:50:46;;;;;;;1.40;1.10;;;;;;;16.37;26.74;93315.47;4936688;29;20047;-90
2022/03/13 03:53:12;;;;;;;1.83;1.00;;;;;;;16.38;26.73;93312.25;4920453;29;20038;-90
2022/03/13 03:55:37;;;;;;;2.40;1.02;;;;;;;16.40;26.74;93323.41;4936522;29;20035;-90
2022/03/13 03:58:02;;;;;;;1.10;0.82;;;;;;;16.40;26.75;93317.22;4920301;29;20042;-89
2022/03/13 04:00:29;;;;;;;1.17;1.05;;;;;;;16.37;26.83;93318.94;4921844;29;20046;-90
2022/03/13 04:02:55;;;;;;;1.02;0.80;;;;;;;16.38;26.73;93323.16;4921781;29;20043;-90
2022/03/13 04:05:20;;;;;;;2.03;1.20;;;;;;;16.38;27.05;93325.16;4952336;29;20062;-89
2022/03/13 04:07:46;;;;;;;1.77;1.10;;;;;;;16.41;26.58;93332.34;4923052;29;20046;-90
2022/03/13 04:10:11;;;;;;;1.27;0.88;;;;;;;16.40;26.73;93328.13;4921134;29;20514;-90
2022/03/13 04:12:38;;;;;;;1.88;1.08;;;;;;;16.38;26.70;93323.16;4920600;29;20293;-90
2022/03/13 04:15:04;;;;;;;1.48;1.00;;;;;;;16.42;26.81;93336.56;4920618;29;20043;-90
2022/03/13 04:17:30;;;;;;;1.33;1.10;;;;;;;16.39;26.74;93334.81;4919892;29;20745;-89
2022/03/13 04:19:55;;;;;;;1.17;0.90;;;;;;;16.40;27.01;93325.41;4938463;29;20039;-89
2022/03/13 04:22:21;;;;;;;1.58;1.20;;;;;;;16.39;26.88;93326.63;4923467;29;20047;-91
2022/03/13 04:24:46;;;;;;;1.10;0.90;;;;;;;16.39;26.80;93321.91;4923558;29;20045;-90
2022/03/13 04:27:12;;;;;;;1.30;1.08;;;;;;;16.40;26.67;93328.13;4922369;29;20405;-89
2022/03/13 04:29:38;;;;;;;2.03;0.95;;;;;;;16.39;26.69;93321.19;4908634;29;20035;-90
2022/03/13 04:32:04;;;;;;;1.63;0.90;;;;;;;16.37;27.01;93327.13;4922354;29;20028;-89
2022/03/13 04:34:29;;;;;;;1.70;1.20;;;;;;;16.39;26.75;93326.63;4938943;29;20055;-89
2022/03/13 04:36:55;;;;;;;2.10;1.10;;;;;;;16.37;26.90;93326.38;4922840;29;20039;-89
2022/03/13 04:39:20;;;;;;;1.63;1.05;;;;;;;16.36;26.64;93325.66;4903792;29;20490;-90
2022/03/13 04:41:46;;;;;;;1.08;0.90;;;;;;;16.39;26.75;93327.38;4920905;29;20047;-90
2022/03/13 04:44:17;;;;;;;1.77;1.05;;;;;;;16.37;26.95;93329.84;4936435;29;20035;-90
2022/03/13 04:46:43;;;;;;;1.42;1.20;;;;;;;16.36;26.80;93325.66;4923210;29;20047;-89
2022/03/13 04:49:08;;;;;;;1.25;0.90;;;;;;;16.37;26.53;93329.13;4921019;29;20035;-90
2022/03/13 04:51:34;;;;;;;1.30;1.00;;;;;;;16.35;26.68;93328.88;4920166;29;20114;-90
2022/03/13 04:53:59;;;;;;;1.90;1.20;;;;;;;16.39;26.61;93334.81;4920258;29;20027;-89
2022/03/13 04:56:24;;;;;;;1.10;1.00;;;;;;;16.38;26.83;93331.34;4918704;29;20043;-89
2022/03/13 04:58:50;;;;;;;1.45;1.10;;;;;;;16.37;26.80;93326.38;4920240;29;20035;-89
2022/03/13 05:01:17;;;;;;;1.50;1.40;;;;;;;16.41;26.94;93335.06;4920950;29;20039;-90
2022/03/13 05:03:42;;;;;;;1.35;0.90;;;;;;;16.39;26.74;93330.09;4907994;29;20043;-90
2022/03/13 05:06:07;;;;;;;5.22;1.70;;;;;;;16.36;26.81;93330.34;4922964;29;20038;-90
2022/03/13 05:08:34;;;;;;;2.15;1.10;;;;;;;16.34;26.72;93332.84;4921629;29;20031;-89
2022/03/13 05:10:59;;;;;;;1.27;0.80;;;;;;;16.33;26.64;93334.06;4920616;29;20055;-91
2022/03/13 05:13:25;;;;;;;2.03;1.40;;;;;;;16.35;26.64;93335.06;4916104;29;20688;-89
2022/03/13 05:15:52;;;;;;;1.48;0.90;;;;;;;16.35;27.09;93339.78;4901007;29;20261;-89
2022/03/13 05:18:17;;;;;;;1.25;0.98;;;;;;;16.34;27.01;93338.28;4900494;29;20039;-89
2022/03/13 05:20:43;;;;;;;1.80;0.82;;;;;;;16.32;27.14;93346.97;4916315;29;20509;-90
2022/03/13 05:23:08;;;;;;;2.20;1.40;;;;;;;16.33;26.95;93348.47;4929017;29;20531;-90
2022/03/13 05:25:35;;;;;;;1.50;1.10;;;;;;;16.35;26.69;93342.50;4921076;29;20043;-90
2022/03/13 05:28:02;;;;;;;1.05;0.90;;;;;;;16.32;26.76;93336.06;4919783;29;20035;-90
2022/03/13 05:30:27;;;;;;;1.00;0.90;;;;;;;16.31;27.09;93340.03;4904120;29;20043;-90
2022/03/13 05:32:53;;;;;;;1.80;1.38;;;;;;;16.32;26.88;93341.50;4903757;29;20028;-89
2022/03/13 05:35:18;;;;;;;1.33;1.00;;;;;;;16.33;26.69;93345.72;4919372;29;20051;-90
2022/03/13 05:37:44;;;;;;;1.63;1.30;;;;;;;16.36;26.74;93336.56;4904299;29;20050;-90
2022/03/13 05:40:13;;;;;;;2.22;1.20;;;;;;;16.36;27.01;93344.00;4907436;29;20099;-91
2022/03/13 05:42:40;;;;;;;1.60;1.13;;;;;;;16.34;27.06;93341.75;4893421;29;20032;-90
2022/03/13 05:45:06;;;;;;;1.25;1.15;;;;;;;16.36;27.09;93341.28;4920534;29;20333;-90
2022/03/13 05:47:31;;;;;;;1.50;1.10;;;;;;;16.37;26.53;93350.94;4912886;29;20197;-91
2022/03/13 05:50:00;;;;;;;1.42;1.10;;;;;;;16.38;26.77;93347.72;4921981;29;20734;-89
2022/03/13 05:52:26;;;;;;;1.15;1.05;;;;;;;16.38;26.96;93347.72;4905613;29;20067;-90
2022/03/13 05:54:52;;;;;;;1.70;1.23;;;;;;;16.41;26.89;93348.72;4919258;29;20070;-90
2022/03/13 05:57:17;;;;;;;1.52;1.15;;;;;;;16.43;26.91;93344.25;4918351;29;20453;-90
2022/03/13 05:59:42;;;;;;;2.20;1.50;;;;;;;16.43;27.20;93346.22;4920840;29;20448;-91
2022/03/13 06:02:08;;;;;;;1.40;1.10;;;;;;;16.38;26.73;93353.16;4938220;29;20035;-90
2022/03/13 06:04:35;;;;;;;1.20;1.00;;;;;;;16.44;26.93;93353.91;4922462;29;20414;-90
2022/03/13 06:07:01;;;;;;;1.90;1.02;;;;;;;16.42;26.68;93356.41;4923648;29;20091;-90
2022/03/13 06:09:26;;;;;;;1.67;1.13;;;;;;;16.42;26.80;93356.41;4954205;29;20377;-90
2022/03/13 06:11:52;;;;;;;2.22;1.10;;;;;;;16.44;26.84;93355.91;4920195;29;20035;-90
2022/03/13 06:14:18;;;;;;;1.42;1.20;;;;;;;16.48;26.77;93358.34;4918448;29;20466;-90
2022/03/13 06:16:43;;;;;;;1.60;1.10;;;;;;;16.47;26.97;93360.34;4903823;29;20035;-90
2022/03/13 06:19:09;;;;;;;1.50;1.05;;;;;;;16.47;26.48;93360.34;4918816;29;20375;-89
2022/03/13 06:21:34;;;;;;;1.98;1.15;;;;;;;16.48;26.85;93358.34;4920824;29;20506;-90
2022/03/13 06:24:00;;;;;;;1.50;1.20;;;;;;;16.50;26.92;93353.88;4904804;29;20031;-90
2022/03/13 06:26:25;;;;;;;1.48;1.38;;;;;;;16.47;26.98;93363.06;4904236;29;20035;-91
2022/03/13 06:28:50;;;;;;;1.75;1.17;;;;;;;16.49;26.84;93365.28;4904093;29;20068;-90
2022/03/13 06:31:16;;;;;;;1.75;1.33;;;;;;;16.50;26.65;93362.06;4903397;29;20035;-90
2022/03/13 06:33:41;;;;;;;2.03;1.33;;;;;;;16.55;26.90;93372.22;4904069;29;20333;-90
2022/03/13 06:36:07;;;;;;;1.50;1.33;;;;;;;16.55;26.95;93366.78;4902903;29;20050;-92
2022/03/13 06:38:32;;;;;;;1.45;1.30;;;;;;;16.56;26.54;93364.78;4902658;29;20474;-90
2022/03/13 06:40:58;;;;;;;1.85;1.38;;;;;;;16.53;26.77;93366.53;4900523;29;20272;-89
2022/03/13 06:43:23;;;;;;;2.25;1.60;;;;;;;16.56;26.49;93375.72;4885206;29;20043;-91
2022/03/13 06:45:49;;;;;;;1.33;1.00;;;;;;;16.58;26.73;93376.69;4905190;29;20035;-90
2022/03/13 06:48:15;;;;;;;2.88;1.40;;;;;;;16.61;26.49;93372.22;4920268;29;20050;-89
2022/03/13 06:50:41;;;;;;;1.85;1.35;;;;;;;16.61;26.29;93375.69;4919928;29;20043;-90
2022/03/13 06:53:07;;;;;;;1.30;1.20;;;;;;;16.61;26.74;93383.16;4918752;29;20053;-90
2022/03/13 06:55:32;;;;;;;1.50;1.25;;;;;;;16.63;26.61;93377.94;4919167;29;20486;-90
2022/03/13 06:57:57;;;;;;;1.23;1.13;;;;;;;16.67;26.40;93381.91;4935642;29;20036;-89
2022/03/13 07:00:23;;;;;;;1.60;1.30;;;;;;;16.67;26.53;93390.09;4933141;29;20043;-90
2022/03/13 07:02:49;;;;;;;1.55;1.17;;;;;;;16.67;26.27;93390.09;4954302;28;20637;-89
2022/03/13 07:05:15;;;;;;;1.60;1.20;;;;;;;16.69;26.64;93395.03;4906356;29;20048;-90
2022/03/13 07:07:41;;;;;;;1.80;1.40;;;;;;;16.67;26.46;93394.81;4922420;29;20040;-90
2022/03/13 07:10:11;;;;;;;1.70;1.15;;;;;;;16.70;26.66;93397.28;4923533;29;20027;-89
2022/03/13 07:12:37;;;;;;;1.42;1.17;;;;;;;16.72;26.52;93391.31;4912225;29;20043;-90
2022/03/13 07:15:03;;;;;;;2.92;1.10;;;;;;;16.76;26.45;93402.72;4928654;23;20106;-91
2022/03/13 07:17:29;;;;;;;1.10;0.95;;;;;;;16.76;26.34;93408.94;4924511;29;20246;-90
2022/03/13 07:19:54;;;;;;;1.90;1.35;;;;;;;16.77;26.71;93406.94;4906545;29;20087;-90
2022/03/13 07:22:21;;;;;;;1.92;1.40;;;;;;;16.76;26.32;93408.19;4919038;29;20050;-90
2022/03/13 07:24:46;;;;;;;1.40;1.15;;;;;;;16.74;26.71;93411.41;4904004;29;20392;-90
2022/03/13 07:27:12;;;;;;;2.10;1.63;;;;;;;16.78;26.34;93411.91;4903004;29;20032;-89
2022/03/13 07:29:38;;;;;;;1.20;1.00;;;;;;;16.79;26.79;93404.47;4921781;29;20069;-90
2022/03/13 07:32:04;;;;;;;1.20;1.10;;;;;;;16.76;26.84;93414.41;4926697;29;20067;-89
2022/03/13 07:34:29;;;;;;;1.63;1.30;;;;;;;16.84;26.58;93397.50;4913570;29;20072;-91
2022/03/13 07:36:55;;;;;;;2.03;1.27;;;;;;;16.81;26.81;93407.44;4926149;29;20039;-90
2022/03/13 07:39:21;;;;;;;1.65;1.30;;;;;;;16.86;26.50;93409.41;4924496;29;20028;-90
2022/03/13 07:41:47;;;;;;;1.58;1.30;;;;;;;16.85;26.20;93407.19;4919709;29;20039;-88
2022/03/13 07:44:12;;;;;;;1.73;1.10;;;;;;;16.84;26.70;93411.91;4903523;29;20036;-89
2022/03/13 07:46:38;;;;;;;1.23;1.10;;;;;;;16.88;26.45;93398.75;4905210;29;20047;-89
2022/03/13 07:49:03;;;;;;;2.40;1.25;;;;;;;16.89;26.54;93407.69;4936470;29;20047;-89
2022/03/13 07:51:28;;;;;;;1.80;1.10;;;;;;;16.92;26.63;93406.66;4919093;29;20044;-89
2022/03/13 07:53:54;;;;;;;2.25;1.63;;;;;;;16.90;26.66;93409.13;4919458;29;20035;-90
2022/03/13 07:56:19;;;;;;;1.77;1.20;;;;;;;16.92;26.95;93409.38;4918208;29;20032;-89
2022/03/13 07:58:45;;;;;;;1.73;1.30;;;;;;;16.92;26.51;93404.66;4919406;29;20043;-90
2022/03/13 08:01:10;;;;;;;1.88;1.23;;;;;;;16.92;26.91;93410.13;4905401;23;20415;-89
2022/03/13 08:03:36;;;;;;;1.50;1.08;;;;;;;16.93;26.44;93411.63;4903156;29;20507;-89
2022/03/13 08:06:02;;;;;;;1.38;1.02;;;;;;;16.91;26.74;93410.63;4887038;29;20131;-89
2022/03/13 08:08:28;;;;;;;1.50;1.10;;;;;;;16.92;26.77;93404.66;4872173;29;20043;-90
2022/03/13 08:10:53;;;;;;;2.20;1.20;;;;;;;16.92;26.85;93410.13;4883177;29;20037;-89
2022/03/13 08:13:19;;;;;;;1.55;1.30;;;;;;;16.95;26.96;93408.38;4897791;29;20047;-89
2022/03/13 08:15:44;;;;;;;2.38;1.38;;;;;;;16.94;26.63;93407.66;4868295;29;20096;-89
2022/03/13 08:18:10;;;;;;;2.00;1.50;;;;;;;16.95;26.95;93408.38;4868182;29;20036;-88
2022/03/13 08:20:36;;;;;;;1.58;1.02;;;;;;;16.95;26.80;93408.38;4883159;29;20063;-89
2022/03/13 08:23:01;;;;;;;1.15;1.00;;;;;;;16.98;26.72;93404.66;4894687;29;20487;-89
2022/03/13 08:25:27;;;;;;;1.15;1.00;;;;;;;16.97;26.63;93409.38;4885876;29;20036;-89
2022/03/13 08:27:52;;;;;;;1.52;1.17;;;;;;;16.97;26.69;93409.38;4917709;29;20094;-89
2022/03/13 08:30:18;;;;;;;1.45;1.17;;;;;;;17.00;26.88;93405.66;4929985;23;20051;-89
2022/03/13 08:32:43;;;;;;;1.58;1.25;;;;;;;16.99;26.57;93403.41;4933440;29;20039;-89
2022/03/13 08:35:09;;;;;;;1.33;1.10;;;;;;;16.97;27.21;93412.09;4918523;29;20394;-90
2022/03/13 08:37:35;;;;;;;1.20;1.10;;;;;;;16.97;26.90;93406.66;4920246;29;20051;-89
2022/03/13 08:40:03;;;;;;;1.65;1.20;;;;;;;16.99;26.89;93412.34;4917059;29;20047;-90
2022/03/13 08:42:28;;;;;;;2.05;1.40;;;;;;;16.98;27.12;93405.41;4903085;29;20068;-89
2022/03/13 08:44:54;;;;;;;1.10;0.98;;;;;;;16.98;26.88;93405.41;4910557;29;20032;-93
2022/03/13 08:47:19;;;;;;;1.50;1.40;;;;;;;16.96;27.15;93405.16;4932526;29;20040;-90
2022/03/13 08:49:44;;;;;;;1.90;1.23;;;;;;;16.96;26.93;93405.16;4931006;29;20028;-89
2022/03/13 08:52:10;;;;;;;1.20;0.95;;;;;;;16.97;26.87;93403.16;4914552;29;20055;-89
2022/03/13 08:54:35;;;;;;;1.67;1.20;;;;;;;16.98;26.92;93404.66;4898032;29;20040;-89
2022/03/13 08:57:02;;;;;;;1.58;1.30;;;;;;;17.01;26.66;93409.88;4932072;29;20068;-89
2022/03/13 08:59:28;;;;;;;1.58;1.20;;;;;;;16.97;26.67;93406.66;4929402;29;20495;-89
2022/03/13 09:01:53;;;;;;;1.73;1.30;;;;;;;16.98;26.83;93405.41;4931493;29;20060;-89
2022/03/13 09:04:19;;;;;;;1.35;1.23;;;;;;;16.99;27.01;93417.81;4930915;29;20040;-90
2022/03/13 09:06:46;;;;;;;1.23;1.10;;;;;;;16.99;27.00;93408.88;4931646;29;20044;-90
2022/03/13 09:09:12;;;;;;;1.90;1.50;;;;;;;16.97;26.95;93409.38;4931537;29;20063;-90
2022/03/13 09:11:37;;;;;;;1.33;1.02;;;;;;;16.97;26.90;93408.63;4915146;29;20032;-89
2022/03/13 09:14:03;;;;;;;1.73;1.17;;;;;;;16.96;26.73;93409.88;4914776;29;20194;-89
2022/03/13 09:16:31;;;;;;;1.42;1.30;;;;;;;16.95;26.74;93411.13;4914429;29;20039;-90
2022/03/13 09:18:57;;;;;;;1.45;1.05;;;;;;;16.97;26.88;93414.09;4914100;29;20119;-90
2022/03/13 09:21:23;;;;;;;1.42;1.30;;;;;;;16.95;26.75;93422.78;4915295;29;20091;-89
2022/03/13 09:23:49;;;;;;;1.30;1.20;;;;;;;16.94;27.14;93413.09;4919010;29;20036;-90
2022/03/13 09:26:14;;;;;;;1.60;1.10;;;;;;;16.94;27.14;93415.84;4933376;29;20063;-89
2022/03/13 09:28:40;;;;;;;1.85;1.48;;;;;;;16.94;26.80;93417.81;4916134;29;20088;-89
2022/03/13 09:31:06;;;;;;;1.83;1.30;;;;;;;16.99;26.85;93408.88;4918541;29;20020;-89
2022/03/13 09:33:31;;;;;;;1.88;1.25;;;;;;;16.99;26.67;93408.88;4917072;29;20063;-90
2022/03/13 09:35:57;;;;;;;1.85;1.40;;;;;;;16.94;26.16;93412.34;4920150;29;20039;-90
2022/03/13 09:38:23;;;;;;;1.67;1.58;;;;;;;16.90;25.56;93417.31;4922842;29;20032;-90
2022/03/13 09:40:49;;;;;;;3.05;2.10;;;;;;;16.85;25.15;93416.13;4939625;29;20043;-90
2022/03/13 09:43:15;;;;;;;1.65;1.50;;;;;;;16.86;24.96;93405.94;4922197;29;20435;-90
2022/03/13 09:45:41;;;;;;;3.38;2.40;;;;;;;16.92;24.31;93420.31;4927960;29;20054;-89
2022/03/13 09:48:08;;;;;;;3.30;2.17;;;;;;;16.80;24.60;93414.16;4887387;29;20044;-92
2022/03/13 09:50:33;;;;;;;11.15;6.40;;;;;;;16.77;23.69;93424.06;4896065;29;20019;-91
2022/03/13 09:52:59;;;;;;;8.80;4.72;;;;;;;16.78;22.80;93417.38;4889389;29;20039;-91
2022/03/13 09:55:25;;;;;;;7.25;4.40;;;;;;;16.73;23.46;93429.03;4899570;29;20040;-92
2022/03/13 09:57:52;;;;;;;7.55;3.75;;;;;;;16.65;22.91;93416.41;4900229;29;20039;-92
2022/03/13 10:00:18;;;;;;;8.90;4.00;;;;;;;16.68;22.73;93423.59;4899501;29;20476;-91
2022/03/13 10:02:44;;;;;;;4.78;3.83;;;;;;;16.62;22.42;93423.59;4884379;29;20051;-92
2022/03/13 10:05:15;;;;;;;8.80;3.50;;;;;;;16.67;22.00;93416.66;4899327;29;20047;-91
2022/03/13 10:07:56;;;;;;;7.18;3.92;;;;;;;16.64;22.13;93423.13;4884569;29;20050;-92
2022/03/13 10:10:25;;;;;;;4.78;3.33;;;;;;;16.55;21.20;93421.34;4883612;29;20113;-94
2022/03/13 10:12:50;;;;;;;5.43;3.85;;;;;;;16.62;21.48;93415.41;4883817;29;20032;-91
2022/03/13 10:15:16;;;;;;;4.82;3.58;;;;;;;16.55;21.05;93420.59;4883932;29;20483;-95
2022/03/13 10:17:42;;;;;;;7.38;4.10;;;;;;;16.57;20.93;93415.41;4899928;29;20048;-94
2022/03/13 10:20:12;;;;;;;6.55;4.07;;;;;;;16.57;20.47;93418.13;4899156;29;20039;-91
2022/03/13 10:22:38;;;;;;;6.30;3.88;;;;;;;16.52;20.16;93425.06;4899707;29;20036;-91
2022/03/13 10:25:05;;;;;;;4.03;3.22;;;;;;;16.55;20.16;93420.59;4917166;29;20089;-92
2022/03/13 10:27:32;;;;;;;5.82;3.65;;;;;;;16.50;19.87;93413.16;4887145;29;20051;-92
2022/03/13 10:29:57;;;;;;;5.22;3.65;;;;;;;16.53;19.46;93417.63;4899451;29;20115;-92
2022/03/13 10:32:23;;;;;;;5.00;3.83;;;;;;;16.48;19.73;93416.38;4898758;29;20027;-92
2022/03/13 10:34:56;;;;;;;5.95;3.75;;;;;;;16.49;19.59;93411.69;4899873;29;20051;-92
2022/03/13 10:37:38;;;;;;;6.63;3.97;;;;;;;16.43;19.55;93403.53;4901315;29;20067;-92
2022/03/13 10:40:08;;;;;;;8.60;4.05;;;;;;;16.39;19.32;93401.03;4894554;29;20031;-92
2022/03/13 10:42:41;;;;;;;10.05;3.85;;;;;;;16.35;19.14;93418.88;4922354;29;20577;-93
2022/03/13 10:45:08;;;;;;;4.80;3.80;;;;;;;16.41;19.09;93404.00;4923078;29;20039;-94
2022/03/13 10:47:33;;;;;;;5.57;4.38;;;;;;;16.34;18.98;93403.75;4938249;29;20050;-92
2022/03/13 10:49:59;;;;;;;5.38;4.22;;;;;;;16.36;18.96;93410.22;4920136;29;20384;-91
2022/03/13 10:52:29;;;;;;;4.88;3.45;;;;;;;16.39;18.62;93405.75;4935848;29;20496;-92
2022/03/13 10:54:56;;;;;;;5.55;4.25;;;;;;;16.38;18.82;93415.16;4937327;29;20043;-92
2022/03/13 10:57:23;;;;;;;6.68;4.05;;;;;;;16.39;18.79;93408.47;4920776;29;20047;-91
2022/03/13 11:00:12;;;;;;;6.05;4.10;;;;;;;16.37;18.56;93408.97;4937694;29;20513;-92
2022/03/13 11:02:38;;;;;;;6.47;4.00;;;;;;;16.33;18.03;93405.75;4920904;29;20042;-91
2022/03/13 11:05:04;;;;;;;8.00;4.18;;;;;;;16.34;18.53;93414.69;4921192;29;20035;-91
2022/03/13 11:07:30;;;;;;;7.25;3.70;;;;;;;16.30;18.24;93398.56;4922111;29;20042;-92
2022/03/13 11:09:56;;;;;;;9.45;4.35;;;;;;;16.34;18.18;93401.03;4921211;29;20023;-92
2022/03/13 11:12:21;;;;;;;5.10;3.88;;;;;;;16.31;17.85;93410.22;4920435;29;20043;-92
2022/03/13 11:14:50;;;;;;;5.53;4.00;;;;;;;16.30;18.01;93406.00;4920859;29;20047;-94
2022/03/13 11:17:18;;;;;;;4.78;3.83;;;;;;;16.20;17.68;93412.97;4920564;29;20506;-92
2022/03/13 11:19:45;;;;;;;5.03;4.10;;;;;;;16.22;17.61;93405.03;4920749;29;20043;-91
2022/03/13 11:22:11;;;;;;;6.53;4.05;;;;;;;16.25;17.91;93409.47;4921190;29;20047;-92
2022/03/13 11:24:36;;;;;;;6.60;3.67;;;;;;;16.17;17.71;93403.03;4920684;29;20043;-94
2022/03/13 11:27:07;;;;;;;4.25;3.63;;;;;;;16.22;17.29;93402.28;4905347;29;20398;-92
2022/03/13 11:29:39;;;;;;;5.25;3.53;;;;;;;16.18;17.31;93399.81;4905090;29;20066;-95
2022/03/13 11:32:43;;;;;;;6.55;4.10;;;;;;;16.12;17.45;93401.78;4919872;29;20043;-91